Sunday, December 17, 2017, 10:13 PM EST
Back to Local

KERI, Erie International Airport

Location: Erie, PA, United States Lat: 42.083
Local Time: 10:13 PM EST ( 3:13 GMT) Lon: -80.183
Time Zone: US/Eastern Elev: 731 ft

Show me the last for .
Show Coded

Time T Td Feel RH Dir Speed Gust Alt SLP Vis Weather Sky Remarks
2017-12-17 21:51 37 30 29 75 200° 12 - 30.06 30.09 9 OVC110 None
2017-12-17 20:51 35 29 30 78 200° 6 - 30.07 30.10 8 FEW075 None
2017-12-17 19:51 31 27 - 85 - Calm - 30.09 30.11 6 BR OVC120 None
2017-12-17 18:51 27 26 - 96 - Calm - 30.09 30.12 4 BR CLR 6-hr Min Temp (7pm): 27.0°F
6-hr Max Temp (7pm): 30.0°F
2017-12-17 17:51 28 25 - 88 - Calm - 30.09 30.12 5 BR CLR None
2017-12-17 16:51 30 26 25 84 70° 5 - 30.12 30.15 5 BR CLR None
2017-12-17 15:51 29 26 21 88 50° 8 - 30.13 30.16 4 BR CLR None
2017-12-17 14:51 29 25 21 84 60° 8 - 30.11 30.14 4 BR CLR None
2017-12-17 13:51 30 25 22 81 60° 8 - 30.14 30.16 4 HZ CLR None
2017-12-17 12:51 29 25 - 84 - Calm - 30.17 30.20 5 BR CLR 6-hr Min Temp (1pm): 19.9°F
6-hr Max Temp (1pm): 28.9°F
2017-12-17 11:51 28 23 20 81 60° 8 - 30.18 30.21 6 HZ CLR None
2017-12-17 10:51 27 23 23 84 80° 3 - 30.23 30.26 7 CLR None
2017-12-17 09:51 25 21 16 84 70° 8 - 30.23 30.26 6 BR CLR None
2017-12-17 08:51 22 19 14 88 80° 6 - 30.23 30.26 5 BR CLR None
2017-12-17 08:22 20 18 12 91 70° 6 - 30.22 - 5 BR SCT024 SCT039 None
2017-12-17 07:51 22 18 16 84 80° 5 - 30.23 30.26 7 OVC025 None
2017-12-17 07:27 21 18 16 87 90° 3 - 30.24 - 9 BKN027 None
2017-12-17 06:51 21 17 15 84 50° 5 - 30.23 30.26 10 CLR 24-hr Precip Total (7am): 0.25"
6-hr Min Temp (7am): 21.0°F
6-hr Max Temp (7am): 27.0°F
2017-12-17 05:51 23 19 12 84 60° 10 - 30.20 30.23 10 CLR None
2017-12-17 04:51 23 19 14 84 60° 8 - 30.19 30.22 8 FEW016 None
2017-12-17 04:41 24 21 15 87 70° 8 - 30.19 - 8 FEW016 None
2017-12-17 04:02 25 22 16 87 80° 8 - 30.19 - 7 BKN017 None
2017-12-17 03:51 23 20 15 87 70° 7 - 30.19 30.21 6 BR SCT017 None
2017-12-17 02:51 24 22 17 91 70° 6 - 30.20 30.23 5 BR FEW012 FEW070 None
2017-12-17 02:37 24 22 18 91 80° 5 - 30.20 - 5 BR SCT013 BKN070 None
2017-12-17 01:51 27 25 22 92 80° 5 - 30.19 30.22 6 BR OVC013 None
2017-12-17 01:42 27 25 22 92 80° 5 - 30.19 - 6 BR OVC014 None
2017-12-17 01:13 26 24 18 92 70° 7 - 30.17 - 3 BR OVC015 None
2017-12-17 00:51 26 25 - 95 - Calm - 30.16 30.19 1 BR BKN015 BKN070 Variable visibility
6-hr Min Temp (1am): 25.0°F
6-hr Max Temp (1am): 30.0°F
2017-12-17 00:39 26 25 - 95 - Calm - 30.16 - 1 BR FEW070 None
2017-12-16 23:51 29 27 - 92 - Calm - 30.16 30.19 5 BR OVC070 24-hr Min Temp (12am): 25.0°F
24-hr Max Temp (12am): 32.0°F
2017-12-16 22:51 29 27 - 92 - Calm - 30.16 30.18 5 BR OVC070 None

Support USWX by starting your Amazon purchase here.